sensor_id;sensor_type;location;lat;lon;timestamp;pressure;altitude;pressure_sealevel;temperature;humidity
74975;BME280;68459;50.836;19.138;2023-05-07T00:02:07;98848.25;;;7.95;73.30
74975;BME280;68459;50.836;19.138;2023-05-07T00:05:12;98841.00;;;7.88;72.99
74975;BME280;68459;50.836;19.138;2023-05-07T00:08:17;98849.69;;;7.84;73.29
74975;BME280;68459;50.836;19.138;2023-05-07T00:11:20;98849.88;;;7.82;73.39
74975;BME280;68459;50.836;19.138;2023-05-07T00:14:24;98859.97;;;7.80;73.28
74975;BME280;68459;50.836;19.138;2023-05-07T00:17:28;98850.91;;;7.81;73.20
74975;BME280;68459;50.836;19.138;2023-05-07T00:20:34;98851.09;;;7.80;73.75
74975;BME280;68459;50.836;19.138;2023-05-07T00:23:37;98854.81;;;7.79;73.28
74975;BME280;68459;50.836;19.138;2023-05-07T00:26:41;98854.19;;;7.77;73.15
74975;BME280;68459;50.836;19.138;2023-05-07T00:29:45;98852.72;;;7.74;72.79
74975;BME280;68459;50.836;19.138;2023-05-07T00:32:49;98849.41;;;7.72;73.23
74975;BME280;68459;50.836;19.138;2023-05-07T00:35:54;98848.78;;;7.70;73.07
74975;BME280;68459;50.836;19.138;2023-05-07T00:38:59;98845.09;;;7.71;73.73
74975;BME280;68459;50.836;19.138;2023-05-07T00:42:05;98845.47;;;7.68;73.13
74975;BME280;68459;50.836;19.138;2023-05-07T00:45:10;98850.41;;;7.65;72.98
74975;BME280;68459;50.836;19.138;2023-05-07T00:48:14;98856.59;;;7.65;73.07
74975;BME280;68459;50.836;19.138;2023-05-07T00:51:20;98854.31;;;7.62;73.87
74975;BME280;68459;50.836;19.138;2023-05-07T00:54:24;98859.69;;;7.62;73.52
74975;BME280;68459;50.836;19.138;2023-05-07T00:57:28;98860.13;;;7.66;73.40
74975;BME280;68459;50.836;19.138;2023-05-07T01:00:32;98863.63;;;7.66;73.04
74975;BME280;68459;50.836;19.138;2023-05-07T01:03:36;98869.63;;;7.68;73.15
74975;BME280;68459;50.836;19.138;2023-05-07T01:06:42;98863.25;;;7.69;73.34
74975;BME280;68459;50.836;19.138;2023-05-07T01:09:48;98873.56;;;7.72;73.30
74975;BME280;68459;50.836;19.138;2023-05-07T01:12:52;98869.66;;;7.75;73.58
74975;BME280;68459;50.836;19.138;2023-05-07T01:15:57;98871.50;;;7.74;73.39
74975;BME280;68459;50.836;19.138;2023-05-07T01:19:01;98871.94;;;7.71;73.06
74975;BME280;68459;50.836;19.138;2023-05-07T01:22:10;98874.38;;;7.66;73.26
74975;BME280;68459;50.836;19.138;2023-05-07T01:25:24;98877.66;;;7.62;73.26
74975;BME280;68459;50.836;19.138;2023-05-07T01:28:31;98883.22;;;7.60;72.94
74975;BME280;68459;50.836;19.138;2023-05-07T01:31:37;98879.94;;;7.58;73.30
74975;BME280;68459;50.836;19.138;2023-05-07T01:34:45;98872.47;;;7.60;73.60
74975;BME280;68459;50.836;19.138;2023-05-07T01:37:51;98882.59;;;7.58;73.77
74975;BME280;68459;50.836;19.138;2023-05-07T01:40:58;98884.03;;;7.54;73.29
74975;BME280;68459;50.836;19.138;2023-05-07T01:44:03;98899.50;;;7.52;73.51
74975;BME280;68459;50.836;19.138;2023-05-07T01:47:08;98893.69;;;7.48;73.22
74975;BME280;68459;50.836;19.138;2023-05-07T01:50:12;98892.44;;;7.44;73.18
74975;BME280;68459;50.836;19.138;2023-05-07T01:53:20;98899.41;;;7.39;73.70
74975;BME280;68459;50.836;19.138;2023-05-07T01:56:25;98893.22;;;7.38;73.44
74975;BME280;68459;50.836;19.138;2023-05-07T01:59:29;98892.38;;;7.38;73.44
74975;BME280;68459;50.836;19.138;2023-05-07T02:02:33;98895.91;;;7.38;73.45
74975;BME280;68459;50.836;19.138;2023-05-07T02:05:37;98893.84;;;7.40;73.49
74975;BME280;68459;50.836;19.138;2023-05-07T02:08:48;98892.78;;;7.35;73.57
74975;BME280;68459;50.836;19.138;2023-05-07T02:11:54;98897.28;;;7.28;73.80
74975;BME280;68459;50.836;19.138;2023-05-07T02:14:58;98899.28;;;7.19;73.66
74975;BME280;68459;50.836;19.138;2023-05-07T02:18:04;98893.50;;;7.15;73.93
74975;BME280;68459;50.836;19.138;2023-05-07T02:21:09;98900.91;;;7.13;73.54
74975;BME280;68459;50.836;19.138;2023-05-07T02:24:13;98904.16;;;7.09;73.75
74975;BME280;68459;50.836;19.138;2023-05-07T02:27:18;98907.84;;;7.08;73.11
74975;BME280;68459;50.836;19.138;2023-05-07T02:30:22;98899.16;;;6.99;74.25
74975;BME280;68459;50.836;19.138;2023-05-07T02:33:29;98907.56;;;6.96;73.17
74975;BME280;68459;50.836;19.138;2023-05-07T02:36:34;98904.84;;;6.90;73.66
74975;BME280;68459;50.836;19.138;2023-05-07T02:39:43;98906.88;;;6.88;73.38
74975;BME280;68459;50.836;19.138;2023-05-07T02:42:48;98910.13;;;6.83;74.24
74975;BME280;68459;50.836;19.138;2023-05-07T02:46:00;98910.34;;;6.82;73.32
74975;BME280;68459;50.836;19.138;2023-05-07T02:49:05;98909.31;;;6.83;73.93
74975;BME280;68459;50.836;19.138;2023-05-07T02:52:09;98910.13;;;6.83;73.60
74975;BME280;68459;50.836;19.138;2023-05-07T02:55:13;98910.75;;;6.78;74.22
74975;BME280;68459;50.836;19.138;2023-05-07T02:58:19;98908.81;;;6.72;74.34
74975;BME280;68459;50.836;19.138;2023-05-07T03:01:22;98904.94;;;6.75;74.22
74975;BME280;68459;50.836;19.138;2023-05-07T03:04:33;98903.72;;;6.77;73.72
74975;BME280;68459;50.836;19.138;2023-05-07T03:07:37;98915.47;;;6.76;73.70
74975;BME280;68459;50.836;19.138;2023-05-07T03:10:41;98916.09;;;6.78;73.92
74975;BME280;68459;50.836;19.138;2023-05-07T03:13:46;98915.00;;;6.73;73.41
74975;BME280;68459;50.836;19.138;2023-05-07T03:16:53;98914.09;;;6.66;73.72
74975;BME280;68459;50.836;19.138;2023-05-07T03:19:57;98921.28;;;6.59;73.35
74975;BME280;68459;50.836;19.138;2023-05-07T03:23:00;98924.69;;;6.53;74.09
74975;BME280;68459;50.836;19.138;2023-05-07T03:26:04;98931.09;;;6.52;73.99
74975;BME280;68459;50.836;19.138;2023-05-07T03:29:09;98939.16;;;6.52;74.17
74975;BME280;68459;50.836;19.138;2023-05-07T03:32:13;98936.84;;;6.49;74.27
74975;BME280;68459;50.836;19.138;2023-05-07T03:35:18;98943.78;;;6.43;73.33
74975;BME280;68459;50.836;19.138;2023-05-07T03:38:22;98948.94;;;6.44;73.63
74975;BME280;68459;50.836;19.138;2023-05-07T03:41:25;98950.97;;;6.42;74.58
74975;BME280;68459;50.836;19.138;2023-05-07T03:44:31;98959.22;;;6.41;74.17
74975;BME280;68459;50.836;19.138;2023-05-07T03:47:35;98963.34;;;6.43;74.30
74975;BME280;68459;50.836;19.138;2023-05-07T03:50:41;98960.94;;;6.49;74.37
74975;BME280;68459;50.836;19.138;2023-05-07T03:53:44;98963.63;;;6.49;73.91
74975;BME280;68459;50.836;19.138;2023-05-07T03:56:48;98962.63;;;6.50;73.86
74975;BME280;68459;50.836;19.138;2023-05-07T03:59:53;98965.66;;;6.47;74.37
74975;BME280;68459;50.836;19.138;2023-05-07T04:02:57;98968.34;;;6.47;73.76
74975;BME280;68459;50.836;19.138;2023-05-07T04:06:04;98973.88;;;6.45;73.87
74975;BME280;68459;50.836;19.138;2023-05-07T04:09:10;98991.81;;;6.44;73.64
74975;BME280;68459;50.836;19.138;2023-05-07T04:12:15;98992.81;;;6.43;73.75
74975;BME280;68459;50.836;19.138;2023-05-07T04:15:20;99002.34;;;6.46;73.60
74975;BME280;68459;50.836;19.138;2023-05-07T04:18:24;99000.03;;;6.43;74.30
74975;BME280;68459;50.836;19.138;2023-05-07T04:21:28;98997.53;;;6.41;73.84
74975;BME280;68459;50.836;19.138;2023-05-07T04:24:33;99001.31;;;6.47;74.08
74975;BME280;68459;50.836;19.138;2023-05-07T04:27:38;99007.97;;;6.51;73.87
74975;BME280;68459;50.836;19.138;2023-05-07T04:30:43;99011.69;;;6.50;73.47
74975;BME280;68459;50.836;19.138;2023-05-07T04:33:47;99018.69;;;6.51;74.27
74975;BME280;68459;50.836;19.138;2023-05-07T04:36:53;99023.22;;;6.51;74.16
74975;BME280;68459;50.836;19.138;2023-05-07T04:39:56;99022.41;;;6.50;73.84
74975;BME280;68459;50.836;19.138;2023-05-07T04:43:00;99025.91;;;6.51;73.67
74975;BME280;68459;50.836;19.138;2023-05-07T04:46:09;99036.81;;;6.49;73.55
74975;BME280;68459;50.836;19.138;2023-05-07T04:49:12;99035.78;;;6.50;73.74
74975;BME280;68459;50.836;19.138;2023-05-07T04:52:16;99043.66;;;6.52;73.68
74975;BME280;68459;50.836;19.138;2023-05-07T04:55:20;99045.03;;;6.48;73.69
74975;BME280;68459;50.836;19.138;2023-05-07T04:58:24;99046.03;;;6.47;73.48
74975;BME280;68459;50.836;19.138;2023-05-07T05:01:29;99047.97;;;6.53;73.66
74975;BME280;68459;50.836;19.138;2023-05-07T05:04:33;99047.34;;;6.51;73.77
74975;BME280;68459;50.836;19.138;2023-05-07T05:07:37;99042.81;;;6.51;73.59
74975;BME280;68459;50.836;19.138;2023-05-07T05:10:42;99053.91;;;6.48;73.36
74975;BME280;68459;50.836;19.138;2023-05-07T05:13:46;99050.03;;;6.51;73.52
74975;BME280;68459;50.836;19.138;2023-05-07T05:16:55;99056.66;;;6.55;73.33
74975;BME280;68459;50.836;19.138;2023-05-07T05:19:59;99060.34;;;6.54;73.63
74975;BME280;68459;50.836;19.138;2023-05-07T05:23:04;99070.50;;;6.58;73.40
74975;BME280;68459;50.836;19.138;2023-05-07T05:26:08;99067.47;;;6.61;72.89
74975;BME280;68459;50.836;19.138;2023-05-07T05:29:12;99069.13;;;6.62;73.41
74975;BME280;68459;50.836;19.138;2023-05-07T05:32:18;99088.72;;;6.63;73.18
74975;BME280;68459;50.836;19.138;2023-05-07T05:35:22;99081.09;;;6.66;73.71
74975;BME280;68459;50.836;19.138;2023-05-07T05:38:26;99092.28;;;6.70;73.00
74975;BME280;68459;50.836;19.138;2023-05-07T05:41:30;99091.91;;;6.73;73.61
74975;BME280;68459;50.836;19.138;2023-05-07T05:44:34;99091.56;;;6.76;73.35
74975;BME280;68459;50.836;19.138;2023-05-07T05:47:40;99094.47;;;6.81;72.76
74975;BME280;68459;50.836;19.138;2023-05-07T05:50:44;99099.94;;;6.88;72.83
74975;BME280;68459;50.836;19.138;2023-05-07T05:53:49;99102.44;;;6.89;73.24
74975;BME280;68459;50.836;19.138;2023-05-07T05:56:52;99107.19;;;6.94;72.92
74975;BME280;68459;50.836;19.138;2023-05-07T05:59:58;99109.03;;;6.93;72.92
74975;BME280;68459;50.836;19.138;2023-05-07T06:03:03;99110.72;;;6.94;73.29
74975;BME280;68459;50.836;19.138;2023-05-07T06:06:07;99118.75;;;6.94;72.88
74975;BME280;68459;50.836;19.138;2023-05-07T06:09:10;99109.03;;;6.93;73.41
74975;BME280;68459;50.836;19.138;2023-05-07T06:12:18;99112.38;;;6.95;72.77
74975;BME280;68459;50.836;19.138;2023-05-07T06:15:22;99111.19;;;6.98;72.93
74975;BME280;68459;50.836;19.138;2023-05-07T06:18:28;99120.50;;;7.02;73.05
74975;BME280;68459;50.836;19.138;2023-05-07T06:21:32;99118.84;;;7.01;72.81
74975;BME280;68459;50.836;19.138;2023-05-07T06:24:36;99130.13;;;6.96;73.24
74975;BME280;68459;50.836;19.138;2023-05-07T06:27:42;99138.19;;;6.96;72.55
74975;BME280;68459;50.836;19.138;2023-05-07T06:30:46;99129.75;;;6.99;72.46
74975;BME280;68459;50.836;19.138;2023-05-07T06:33:54;99133.97;;;7.08;72.82
74975;BME280;68459;50.836;19.138;2023-05-07T06:37:03;99133.75;;;7.25;72.63
74975;BME280;68459;50.836;19.138;2023-05-07T06:40:20;99135.69;;;7.31;72.18
74975;BME280;68459;50.836;19.138;2023-05-07T06:43:25;99136.09;;;7.34;72.40
74975;BME280;68459;50.836;19.138;2023-05-07T06:46:35;99140.91;;;7.39;72.44
74975;BME280;68459;50.836;19.138;2023-05-07T06:49:42;99132.03;;;7.38;71.88
74975;BME280;68459;50.836;19.138;2023-05-07T06:52:49;99141.66;;;7.33;72.03
74975;BME280;68459;50.836;19.138;2023-05-07T06:55:53;99142.25;;;7.28;72.44
74975;BME280;68459;50.836;19.138;2023-05-07T06:58:57;99149.84;;;7.25;71.44
74975;BME280;68459;50.836;19.138;2023-05-07T07:02:01;99148.19;;;7.24;71.84
74975;BME280;68459;50.836;19.138;2023-05-07T07:05:07;99151.78;;;7.31;72.02
74975;BME280;68459;50.836;19.138;2023-05-07T07:08:12;99145.91;;;7.42;71.77
74975;BME280;68459;50.836;19.138;2023-05-07T07:11:17;99149.59;;;7.41;71.74
74975;BME280;68459;50.836;19.138;2023-05-07T07:14:21;99162.31;;;7.32;71.67
74975;BME280;68459;50.836;19.138;2023-05-07T07:17:27;99160.25;;;7.34;71.90
74975;BME280;68459;50.836;19.138;2023-05-07T07:20:33;99165.81;;;7.33;71.45
74975;BME280;68459;50.836;19.138;2023-05-07T07:23:37;99166.03;;;7.31;72.16
74975;BME280;68459;50.836;19.138;2023-05-07T07:26:41;99173.06;;;7.32;72.15
74975;BME280;68459;50.836;19.138;2023-05-07T07:29:45;99167.88;;;7.52;71.54
74975;BME280;68459;50.836;19.138;2023-05-07T07:32:49;99177.41;;;7.76;71.38
74975;BME280;68459;50.836;19.138;2023-05-07T07:35:55;99177.59;;;7.96;71.47
74975;BME280;68459;50.836;19.138;2023-05-07T07:39:00;99167.97;;;8.08;71.11
74975;BME280;68459;50.836;19.138;2023-05-07T07:42:03;99166.31;;;8.07;70.97
74975;BME280;68459;50.836;19.138;2023-05-07T07:45:08;99174.09;;;8.02;70.60
74975;BME280;68459;50.836;19.138;2023-05-07T07:48:17;99184.28;;;8.06;70.81
74975;BME280;68459;50.836;19.138;2023-05-07T07:51:23;99181.00;;;8.11;70.45
74975;BME280;68459;50.836;19.138;2023-05-07T07:54:26;99188.06;;;8.12;70.62
74975;BME280;68459;50.836;19.138;2023-05-07T07:57:31;99200.44;;;8.13;70.33
74975;BME280;68459;50.836;19.138;2023-05-07T08:00:36;99206.25;;;8.16;70.54
74975;BME280;68459;50.836;19.138;2023-05-07T08:03:40;99198.38;;;8.15;70.37
74975;BME280;68459;50.836;19.138;2023-05-07T08:06:45;99202.63;;;8.03;70.36
74975;BME280;68459;50.836;19.138;2023-05-07T08:09:49;99200.72;;;7.97;70.15
74975;BME280;68459;50.836;19.138;2023-05-07T08:12:57;99211.06;;;8.00;70.56
74975;BME280;68459;50.836;19.138;2023-05-07T08:16:01;99210.38;;;7.91;70.24
74975;BME280;68459;50.836;19.138;2023-05-07T08:19:05;99216.59;;;7.92;71.12
74975;BME280;68459;50.836;19.138;2023-05-07T08:22:11;99218.75;;;8.03;70.38
74975;BME280;68459;50.836;19.138;2023-05-07T08:25:14;99217.09;;;8.02;69.96
74975;BME280;68459;50.836;19.138;2023-05-07T08:28:18;99226.56;;;7.98;70.76
74975;BME280;68459;50.836;19.138;2023-05-07T08:31:23;99223.44;;;7.94;70.27
74975;BME280;68459;50.836;19.138;2023-05-07T08:34:27;99227.41;;;7.98;70.10
74975;BME280;68459;50.836;19.138;2023-05-07T08:37:34;99228.13;;;8.13;70.28
74975;BME280;68459;50.836;19.138;2023-05-07T08:40:39;99240.84;;;8.26;70.39
74975;BME280;68459;50.836;19.138;2023-05-07T08:43:50;99247.50;;;8.30;69.92
74975;BME280;68459;50.836;19.138;2023-05-07T08:46:56;99245.75;;;8.37;69.92
74975;BME280;68459;50.836;19.138;2023-05-07T08:50:01;99254.69;;;8.44;70.12
74975;BME280;68459;50.836;19.138;2023-05-07T08:53:07;99254.69;;;8.44;69.79
74975;BME280;68459;50.836;19.138;2023-05-07T08:56:11;99254.28;;;8.47;70.10
74975;BME280;68459;50.836;19.138;2023-05-07T08:59:17;99262.66;;;8.59;69.50
74975;BME280;68459;50.836;19.138;2023-05-07T09:02:21;99266.66;;;8.70;69.31
74975;BME280;68459;50.836;19.138;2023-05-07T09:05:26;99268.75;;;8.74;69.54
74975;BME280;68459;50.836;19.138;2023-05-07T09:08:32;99277.22;;;8.71;69.04
74975;BME280;68459;50.836;19.138;2023-05-07T09:11:38;99277.78;;;8.67;69.17
74975;BME280;68459;50.836;19.138;2023-05-07T09:14:42;99277.56;;;8.62;69.63
74975;BME280;68459;50.836;19.138;2023-05-07T09:17:46;99271.75;;;8.58;69.30
74975;BME280;68459;50.836;19.138;2023-05-07T09:20:50;99280.44;;;8.60;69.33
74975;BME280;68459;50.836;19.138;2023-05-07T09:23:57;99283.13;;;8.60;69.06
74975;BME280;68459;50.836;19.138;2023-05-07T09:27:10;99285.81;;;8.60;69.25
74975;BME280;68459;50.836;19.138;2023-05-07T09:30:18;99283.28;;;8.52;68.96
74975;BME280;68459;50.836;19.138;2023-05-07T09:33:26;99283.56;;;8.36;69.34
74975;BME280;68459;50.836;19.138;2023-05-07T09:36:32;99289.63;;;8.23;69.13
74975;BME280;68459;50.836;19.138;2023-05-07T09:39:43;99293.84;;;8.11;70.04
74975;BME280;68459;50.836;19.138;2023-05-07T09:42:50;99300.94;;;8.18;69.99
74975;BME280;68459;50.836;19.138;2023-05-07T09:45:55;99293.72;;;8.19;69.47
74975;BME280;68459;50.836;19.138;2023-05-07T09:49:02;99296.03;;;8.22;69.84
74975;BME280;68459;50.836;19.138;2023-05-07T09:52:13;99300.72;;;8.35;70.01
74975;BME280;68459;50.836;19.138;2023-05-07T09:55:25;99303.50;;;8.48;69.60
74975;BME280;68459;50.836;19.138;2023-05-07T09:58:30;99302.53;;;8.55;69.47
74975;BME280;68459;50.836;19.138;2023-05-07T10:01:37;99298.63;;;8.58;69.23
74975;BME280;68459;50.836;19.138;2023-05-07T10:04:41;99309.81;;;8.62;68.88
74975;BME280;68459;50.836;19.138;2023-05-07T10:07:47;99305.09;;;8.64;69.29
74975;BME280;68459;50.836;19.138;2023-05-07T10:10:59;99307.31;;;8.60;69.22
74975;BME280;68459;50.836;19.138;2023-05-07T10:14:04;99314.03;;;8.71;68.56
74975;BME280;68459;50.836;19.138;2023-05-07T10:17:09;99315.97;;;8.83;68.38
74975;BME280;68459;50.836;19.138;2023-05-07T10:20:17;99317.91;;;8.89;68.57
74975;BME280;68459;50.836;19.138;2023-05-07T10:23:23;99315.00;;;8.91;68.16
74975;BME280;68459;50.836;19.138;2023-05-07T10:26:35;99326.81;;;8.90;68.75
74975;BME280;68459;50.836;19.138;2023-05-07T10:29:48;99326.19;;;8.94;68.01
74975;BME280;68459;50.836;19.138;2023-05-07T10:33:06;99337.56;;;8.90;68.32
74975;BME280;68459;50.836;19.138;2023-05-07T10:36:17;99340.47;;;8.95;68.75
74975;BME280;68459;50.836;19.138;2023-05-07T10:39:23;99334.13;;;9.03;68.22
74975;BME280;68459;50.836;19.138;2023-05-07T10:42:29;99336.06;;;9.15;67.99
74975;BME280;68459;50.836;19.138;2023-05-07T10:45:33;99337.63;;;9.31;67.74
74975;BME280;68459;50.836;19.138;2023-05-07T10:49:08;99333.13;;;9.45;67.43
74975;BME280;68459;50.836;19.138;2023-05-07T10:52:33;99340.56;;;9.43;67.07
74975;BME280;68459;50.836;19.138;2023-05-07T10:55:51;99337.25;;;9.41;67.53
74975;BME280;68459;50.836;19.138;2023-05-07T10:59:43;99334.34;;;9.42;67.26
74975;BME280;68459;50.836;19.138;2023-05-07T11:03:04;99341.69;;;9.61;67.18
74975;BME280;68459;50.836;19.138;2023-05-07T11:06:30;99342.72;;;9.60;67.20
74975;BME280;68459;50.836;19.138;2023-05-07T11:09:54;99343.34;;;9.56;66.84
74975;BME280;68459;50.836;19.138;2023-05-07T11:13:42;99345.59;;;9.59;66.34
74975;BME280;68459;50.836;19.138;2023-05-07T11:17:12;99350.63;;;9.69;67.08
74975;BME280;68459;50.836;19.138;2023-05-07T11:24:17;99359.69;;;9.61;66.04
74975;BME280;68459;50.836;19.138;2023-05-07T11:27:31;99360.66;;;9.40;66.54
74975;BME280;68459;50.836;19.138;2023-05-07T11:30:36;99370.59;;;9.40;66.94
74975;BME280;68459;50.836;19.138;2023-05-07T11:33:46;99372.91;;;9.49;66.67
74975;BME280;68459;50.836;19.138;2023-05-07T11:36:55;99373.41;;;9.66;65.94
74975;BME280;68459;50.836;19.138;2023-05-07T11:40:12;99378.84;;;9.79;66.33
74975;BME280;68459;50.836;19.138;2023-05-07T11:43:16;99389.25;;;9.89;66.54
74975;BME280;68459;50.836;19.138;2023-05-07T11:46:20;99379.59;;;10.08;66.15
74975;BME280;68459;50.836;19.138;2023-05-07T11:49:26;99382.00;;;10.50;65.68
74975;BME280;68459;50.836;19.138;2023-05-07T11:52:31;99379.94;;;10.79;65.23
74975;BME280;68459;50.836;19.138;2023-05-07T11:55:35;99385.34;;;11.05;64.81
74975;BME280;68459;50.836;19.138;2023-05-07T11:58:39;99394.50;;;11.04;63.99
74975;BME280;68459;50.836;19.138;2023-05-07T12:01:45;99393.84;;;10.95;64.06
74975;BME280;68459;50.836;19.138;2023-05-07T12:04:51;99393.44;;;10.72;63.42
74975;BME280;68459;50.836;19.138;2023-05-07T12:07:56;99384.47;;;10.39;64.26
74975;BME280;68459;50.836;19.138;2023-05-07T12:11:00;99393.69;;;10.10;64.77
74975;BME280;68459;50.836;19.138;2023-05-07T12:14:04;99397.78;;;9.92;64.99
74975;BME280;68459;50.836;19.138;2023-05-07T12:17:12;99398.75;;;9.78;64.78
74975;BME280;68459;50.836;19.138;2023-05-07T12:20:19;99397.97;;;9.84;65.71
74975;BME280;68459;50.836;19.138;2023-05-07T12:23:23;99396.34;;;10.03;65.54
74975;BME280;68459;50.836;19.138;2023-05-07T12:26:27;99412.09;;;9.99;64.81
74975;BME280;68459;50.836;19.138;2023-05-07T12:29:31;99408.72;;;9.84;65.18
74975;BME280;68459;50.836;19.138;2023-05-07T12:32:36;99417.06;;;9.55;64.92
74975;BME280;68459;50.836;19.138;2023-05-07T12:35:42;99420.47;;;9.36;65.33
74975;BME280;68459;50.836;19.138;2023-05-07T12:38:49;99421.56;;;9.48;65.96
74975;BME280;68459;50.836;19.138;2023-05-07T12:41:54;99425.25;;;9.75;65.64
74975;BME280;68459;50.836;19.138;2023-05-07T12:44:58;99425.63;;;10.13;65.34
74975;BME280;68459;50.836;19.138;2023-05-07T12:48:01;99421.84;;;10.48;64.63
74975;BME280;68459;50.836;19.138;2023-05-07T12:51:07;99414.63;;;11.08;64.55
74975;BME280;68459;50.836;19.138;2023-05-07T12:54:12;99420.06;;;13.56;65.16
74975;BME280;68459;50.836;19.138;2023-05-07T12:57:19;99414.41;;;15.49;58.07
74975;BME280;68459;50.836;19.138;2023-05-07T13:00:34;99416.28;;;15.02;54.79
74975;BME280;68459;50.836;19.138;2023-05-07T13:03:38;99424.66;;;14.10;56.67
74975;BME280;68459;50.836;19.138;2023-05-07T13:06:44;99412.31;;;13.35;57.49
74975;BME280;68459;50.836;19.138;2023-05-07T13:09:48;99416.97;;;13.03;58.22
74975;BME280;68459;50.836;19.138;2023-05-07T13:12:51;99417.28;;;13.81;59.39
74975;BME280;68459;50.836;19.138;2023-05-07T13:15:55;99414.00;;;14.27;58.08
74975;BME280;68459;50.836;19.138;2023-05-07T13:18:59;99419.91;;;13.87;57.37
74975;BME280;68459;50.836;19.138;2023-05-07T13:22:04;99427.19;;;13.01;57.21
74975;BME280;68459;50.836;19.138;2023-05-07T13:25:09;99436.84;;;12.14;58.82
74975;BME280;68459;50.836;19.138;2023-05-07T13:28:13;99442.66;;;11.40;60.15
74975;BME280;68459;50.836;19.138;2023-05-07T13:31:16;99441.41;;;10.90;60.48
74975;BME280;68459;50.836;19.138;2023-05-07T13:34:20;99446.09;;;10.55;61.42
74975;BME280;68459;50.836;19.138;2023-05-07T13:37:25;99445.84;;;10.30;61.89
74975;BME280;68459;50.836;19.138;2023-05-07T13:40:29;99443.66;;;10.12;62.60
74975;BME280;68459;50.836;19.138;2023-05-07T13:43:33;99449.88;;;10.06;62.97
74975;BME280;68459;50.836;19.138;2023-05-07T13:46:37;99451.13;;;10.10;62.34
74975;BME280;68459;50.836;19.138;2023-05-07T13:49:40;99439.59;;;10.23;62.70
74975;BME280;68459;50.836;19.138;2023-05-07T13:52:46;99444.81;;;10.31;62.29
74975;BME280;68459;50.836;19.138;2023-05-07T13:55:52;99447.41;;;10.18;62.33
74975;BME280;68459;50.836;19.138;2023-05-07T13:58:56;99455.63;;;9.96;62.03
74975;BME280;68459;50.836;19.138;2023-05-07T14:02:02;99449.91;;;9.72;62.42
74975;BME280;68459;50.836;19.138;2023-05-07T14:05:06;99452.06;;;9.55;63.15
74975;BME280;68459;50.836;19.138;2023-05-07T14:08:12;99456.09;;;9.38;62.75
74975;BME280;68459;50.836;19.138;2023-05-07T14:11:16;99458.75;;;9.31;63.20
74975;BME280;68459;50.836;19.138;2023-05-07T14:14:20;99466.69;;;9.46;63.32
74975;BME280;68459;50.836;19.138;2023-05-07T14:17:24;99465.75;;;9.60;63.12
74975;BME280;68459;50.836;19.138;2023-05-07T14:20:29;99465.00;;;9.66;62.72
74975;BME280;68459;50.836;19.138;2023-05-07T14:23:34;99473.63;;;9.55;62.55
74975;BME280;68459;50.836;19.138;2023-05-07T14:26:38;99471.88;;;9.41;62.91
74975;BME280;68459;50.836;19.138;2023-05-07T14:29:42;99481.25;;;9.23;63.07
74975;BME280;68459;50.836;19.138;2023-05-07T14:32:47;99481.72;;;9.06;63.29
74975;BME280;68459;50.836;19.138;2023-05-07T14:35:51;99483.47;;;8.92;63.32
74975;BME280;68459;50.836;19.138;2023-05-07T14:38:56;99484.03;;;8.87;63.49
74975;BME280;68459;50.836;19.138;2023-05-07T14:42:01;99484.03;;;8.87;63.62
74975;BME280;68459;50.836;19.138;2023-05-07T14:45:06;99490.91;;;8.90;63.78
74975;BME280;68459;50.836;19.138;2023-05-07T14:48:11;99495.13;;;8.99;63.88
74975;BME280;68459;50.836;19.138;2023-05-07T14:51:17;99479.66;;;9.08;63.49
74975;BME280;68459;50.836;19.138;2023-05-07T14:54:22;99491.97;;;9.17;64.03
74975;BME280;68459;50.836;19.138;2023-05-07T14:57:26;99492.00;;;9.23;63.24
74975;BME280;68459;50.836;19.138;2023-05-07T15:00:34;99488.94;;;9.26;62.98
74975;BME280;68459;50.836;19.138;2023-05-07T15:03:37;99501.50;;;9.19;63.13
74975;BME280;68459;50.836;19.138;2023-05-07T15:06:42;99497.28;;;9.10;63.52
74975;BME280;68459;50.836;19.138;2023-05-07T15:09:47;99495.13;;;8.99;63.15
74975;BME280;68459;50.836;19.138;2023-05-07T15:12:52;99504.09;;;8.85;63.89
74975;BME280;68459;50.836;19.138;2023-05-07T15:15:56;99504.78;;;8.72;63.37
74975;BME280;68459;50.836;19.138;2023-05-07T15:18:59;99503.75;;;8.73;64.05
74975;BME280;68459;50.836;19.138;2023-05-07T15:22:03;99500.50;;;8.78;63.74
74975;BME280;68459;50.836;19.138;2023-05-07T15:25:09;99512.16;;;8.85;63.73
74975;BME280;68459;50.836;19.138;2023-05-07T15:28:13;99512.28;;;8.77;63.59
74975;BME280;68459;50.836;19.138;2023-05-07T15:31:17;99519.06;;;8.73;63.96
74975;BME280;68459;50.836;19.138;2023-05-07T15:34:21;99508.22;;;8.66;63.57
74975;BME280;68459;50.836;19.138;2023-05-07T15:37:26;99511.50;;;8.62;64.22
74975;BME280;68459;50.836;19.138;2023-05-07T15:40:31;99506.22;;;8.53;64.46
74975;BME280;68459;50.836;19.138;2023-05-07T15:43:43;99508.06;;;8.53;64.35
74975;BME280;68459;50.836;19.138;2023-05-07T15:46:49;99511.59;;;8.53;64.28
74975;BME280;68459;50.836;19.138;2023-05-07T15:49:52;99518.72;;;8.61;64.24
74975;BME280;68459;50.836;19.138;2023-05-07T15:52:56;99519.06;;;8.73;64.05
74975;BME280;68459;50.836;19.138;2023-05-07T15:56:01;99514.66;;;8.86;64.31
74975;BME280;68459;50.836;19.138;2023-05-07T15:59:05;99511.25;;;8.99;64.09
74975;BME280;68459;50.836;19.138;2023-05-07T16:02:09;99519.19;;;9.07;63.96
74975;BME280;68459;50.836;19.138;2023-05-07T16:05:12;99518.16;;;9.08;63.71
74975;BME280;68459;50.836;19.138;2023-05-07T16:08:17;99524.34;;;9.02;63.39
74975;BME280;68459;50.836;19.138;2023-05-07T16:11:21;99520.59;;;8.82;63.57
74975;BME280;68459;50.836;19.138;2023-05-07T16:14:25;99525.09;;;8.75;63.49
74975;BME280;68459;50.836;19.138;2023-05-07T16:17:29;99516.94;;;8.68;64.01
74975;BME280;68459;50.836;19.138;2023-05-07T16:20:33;99518.91;;;8.60;64.22
74975;BME280;68459;50.836;19.138;2023-05-07T16:23:36;99526.97;;;8.60;64.60
74975;BME280;68459;50.836;19.138;2023-05-07T16:26:41;99526.59;;;8.63;64.32
74975;BME280;68459;50.836;19.138;2023-05-07T16:29:45;99518.91;;;8.60;64.44